PWSweather.com
Personal Weather Stations
Station Observations
IPORTUGA89
BarosaPT

BarosaPT

Lat: 39.754028, Lon: -8.843

Elevation: 98

Station Type: Davis Vp2

High Low Average
Temperature 61.0°F16.1°C 53.1°F11.7°C 56.5°F13.6°C
Dew Point 56.3°F13.5°C 50.5°F10.3°C 53.3°F11.8°C
Winds 10.1 mph 16.3 kmh Calm Calm 2.0 mph S3.2 kmh S
Wind Gusts 21.9 mph35.2 kmh -- 6.0 mph9.7 kmh
Humidity 94% 74% 89%
Pressure 29.69 in1005.4 mb 29.41 in995.9 mb -
Precipitation 0.46 in11.7 mm - -
Hour Temp Dew Point Humidity Winds Wind Gusts Pressure Precip Precip Rate Daily Precip Total
12:09 AM 53.4°F11.9°C 50.9°F10.5°C 91% Calm Calm -- 29.66 in1004.4 mb 0.00 in0.0 mm 0.00 in0.0 mm 0.00 in0.0 mm
12:19 AM 53.1°F11.7°C 50.5°F10.3°C 91% Calm Calm -- 29.66 in1004.4 mb 0.00 in0.0 mm 0.00 in0.0 mm 0.00 in0.0 mm
12:29 AM 53.1°F11.7°C 50.7°F10.4°C 92% Calm Calm -- 29.66 in1004.4 mb 0.00 in0.0 mm 0.00 in0.0 mm 0.00 in0.0 mm
12:39 AM 53.2°F11.8°C 50.9°F10.5°C 92% Calm Calm -- 29.66 in1004.4 mb 0.00 in0.0 mm 0.00 in0.0 mm 0.00 in0.0 mm
12:49 AM 53.8°F12.1°C 51.4°F10.8°C 92% Calm Calm -- 29.67 in1004.7 mb 0.00 in0.0 mm 0.00 in0.0 mm 0.00 in0.0 mm
01:00 AM 54.0°F12.2°C 51.6°F10.9°C 92% Calm Calm -- 29.67 in1004.7 mb 0.00 in0.0 mm 0.00 in0.0 mm 0.00 in0.0 mm
01:10 AM 54.3°F12.4°C 52.0°F11.1°C 92% Calm Calm -- 29.67 in1004.7 mb 0.00 in0.0 mm 0.00 in0.0 mm 0.00 in0.0 mm
01:20 AM 54.5°F12.5°C 52.2°F11.2°C 92% Calm Calm -- 29.66 in1004.4 mb 0.00 in0.0 mm 0.00 in0.0 mm 0.00 in0.0 mm
01:30 AM 54.7°F12.6°C 52.3°F11.3°C 92% Calm Calm -- 29.66 in1004.4 mb 0.00 in0.0 mm 0.00 in0.0 mm 0.00 in0.0 mm
01:40 AM 54.7°F12.6°C 52.2°F11.2°C 91% Calm Calm -- 29.66 in1004.4 mb 0.00 in0.0 mm 0.00 in0.0 mm 0.00 in0.0 mm
01:50 AM 54.7°F12.6°C 52.2°F11.2°C 91% Calm Calm -- 29.66 in1004.4 mb 0.00 in0.0 mm 0.00 in0.0 mm 0.00 in0.0 mm
02:00 AM 54.7°F12.6°C 52.2°F11.2°C 91% Calm Calm -- 29.66 in1004.4 mb 0.00 in0.0 mm 0.00 in0.0 mm 0.00 in0.0 mm
02:10 AM 54.7°F12.6°C 52.3°F11.3°C 92% Calm Calm -- 29.66 in1004.4 mb 0.00 in0.0 mm 0.00 in0.0 mm 0.00 in0.0 mm
02:21 AM 54.7°F12.6°C 52.3°F11.3°C 92% Calm Calm -- 29.66 in1004.4 mb 0.00 in0.0 mm 0.00 in0.0 mm 0.00 in0.0 mm
02:31 AM 54.7°F12.6°C 52.3°F11.3°C 92% Calm Calm -- 29.65 in1004.1 mb 0.00 in0.0 mm 0.00 in0.0 mm 0.00 in0.0 mm
02:41 AM 54.5°F12.5°C 52.2°F11.2°C 92% Calm Calm -- 29.65 in1004.1 mb 0.01 in0.3 mm 0.06 in1.5 mm 0.01 in0.3 mm
02:51 AM 54.3°F12.4°C 52.0°F11.1°C 92% Calm Calm -- 29.65 in1004.1 mb 0.01 in0.3 mm 0.00 in0.0 mm 0.01 in0.3 mm
03:01 AM 54.3°F12.4°C 52.0°F11.1°C 92% Calm Calm -- 29.65 in1004.1 mb 0.01 in0.3 mm 0.00 in0.0 mm 0.01 in0.3 mm
03:11 AM 54.1°F12.3°C 51.8°F11.0°C 92% Calm Calm -- 29.65 in1004.1 mb 0.01 in0.3 mm 0.00 in0.0 mm 0.01 in0.3 mm
03:21 AM 54.0°F12.2°C 51.6°F10.9°C 92% Calm Calm -- 29.65 in1004.1 mb 0.01 in0.3 mm 0.00 in0.0 mm 0.01 in0.3 mm
03:32 AM 54.0°F12.2°C 52.0°F11.1°C 93% Calm Calm -- 29.65 in1004.1 mb 0.01 in0.3 mm 0.00 in0.0 mm 0.02 in0.5 mm
03:42 AM 54.0°F12.2°C 52.0°F11.1°C 93% Calm Calm -- 29.65 in1004.1 mb 0.02 in0.5 mm 0.06 in1.5 mm 0.02 in0.5 mm
03:52 AM 54.0°F12.2°C 52.0°F11.1°C 93% Calm Calm -- 29.65 in1004.1 mb 0.02 in0.5 mm 0.00 in0.0 mm 0.02 in0.5 mm
04:02 AM 54.0°F12.2°C 52.0°F11.1°C 93% Calm Calm -- 29.65 in1004.1 mb 0.02 in0.5 mm 0.00 in0.0 mm 0.03 in0.8 mm
04:12 AM 54.3°F12.4°C 52.7°F11.5°C 94% Calm Calm 6.9 mph11.1 kmh 29.65 in1004.1 mb 0.02 in0.5 mm 0.00 in0.0 mm 0.03 in0.8 mm
04:22 AM 54.9°F12.7°C 53.2°F11.8°C 94% Calm Calm 8.1 mph13.0 kmh 29.65 in1004.1 mb 0.02 in0.5 mm 0.00 in0.0 mm 0.03 in0.8 mm
04:32 AM 55.0°F12.8°C 53.4°F11.9°C 94% Calm Calm -- 29.65 in1004.1 mb 0.02 in0.5 mm 0.00 in0.0 mm 0.04 in1.0 mm
04:42 AM 55.2°F12.9°C 53.6°F12.0°C 94% 0.9 mph SSW1.4 kmh SSW 12.1 mph19.5 kmh 29.65 in1004.1 mb 0.03 in0.8 mm 0.06 in1.5 mm 0.06 in1.5 mm
04:52 AM 55.0°F12.8°C 53.4°F11.9°C 94% 2.9 mph SW4.7 kmh SW 12.1 mph19.5 kmh 29.65 in1004.1 mb 0.04 in1.0 mm 0.06 in1.5 mm 0.06 in1.5 mm
05:02 AM 55.0°F12.8°C 53.4°F11.9°C 94% 0.9 mph S1.4 kmh S 8.1 mph13.0 kmh 29.65 in1004.1 mb 0.04 in1.0 mm 0.00 in0.0 mm 0.07 in1.8 mm
05:12 AM 55.2°F12.9°C 53.6°F12.0°C 94% 2.9 mph SW4.7 kmh SW 11.0 mph17.7 kmh 29.66 in1004.4 mb 0.05 in1.3 mm 0.06 in1.5 mm 0.08 in2.0 mm
05:22 AM 55.2°F12.9°C 53.2°F11.8°C 93% 2.9 mph WSW4.7 kmh WSW 14.1 mph22.7 kmh 29.65 in1004.1 mb 0.04 in1.0 mm 0.00 in0.0 mm 0.08 in2.0 mm
05:32 AM 55.2°F12.9°C 53.2°F11.8°C 93% 2.9 mph SW4.7 kmh SW 14.1 mph22.7 kmh 29.65 in1004.1 mb 0.04 in1.0 mm 0.00 in0.0 mm 0.08 in2.0 mm
05:42 AM 55.2°F12.9°C 53.2°F11.8°C 93% 4.0 mph SW6.4 kmh SW 13.0 mph20.9 kmh 29.65 in1004.1 mb 0.02 in0.5 mm 0.00 in0.0 mm 0.08 in2.0 mm
05:52 AM 55.2°F12.9°C 52.9°F11.6°C 92% 4.0 mph SSW6.4 kmh SSW 8.9 mph14.3 kmh 29.65 in1004.1 mb 0.02 in0.5 mm 0.00 in0.0 mm 0.08 in2.0 mm
06:02 AM 55.0°F12.8°C 52.7°F11.5°C 92% 2.0 mph SSW3.2 kmh SSW 10.1 mph16.3 kmh 29.65 in1004.1 mb 0.01 in0.3 mm 0.00 in0.0 mm 0.08 in2.0 mm
06:13 AM 54.9°F12.7°C 52.5°F11.4°C 92% 0.9 mph SW1.4 kmh SW 6.0 mph9.7 kmh 29.66 in1004.4 mb 0.00 in0.0 mm 0.00 in0.0 mm 0.08 in2.0 mm
06:23 AM 54.9°F12.7°C 52.5°F11.4°C 92% 0.9 mph SSW1.4 kmh SSW 11.0 mph17.7 kmh 29.66 in1004.4 mb 0.00 in0.0 mm 0.00 in0.0 mm 0.08 in2.0 mm
06:33 AM 54.9°F12.7°C 52.5°F11.4°C 92% 0.9 mph WSW1.4 kmh WSW 10.1 mph16.3 kmh 29.65 in1004.1 mb 0.00 in0.0 mm 0.00 in0.0 mm 0.08 in2.0 mm
06:43 AM 54.7°F12.6°C 52.3°F11.3°C 92% Calm Calm -- 29.66 in1004.4 mb 0.00 in0.0 mm 0.00 in0.0 mm 0.08 in2.0 mm
06:53 AM 54.7°F12.6°C 52.3°F11.3°C 92% Calm Calm 2.9 mph4.7 kmh 29.66 in1004.4 mb 0.00 in0.0 mm 0.00 in0.0 mm 0.08 in2.0 mm
07:03 AM 54.7°F12.6°C 52.3°F11.3°C 92% Calm Calm -- 29.66 in1004.4 mb 0.00 in0.0 mm 0.00 in0.0 mm 0.08 in2.0 mm
07:13 AM 54.7°F12.6°C 52.3°F11.3°C 92% Calm Calm -- 29.66 in1004.4 mb 0.00 in0.0 mm 0.00 in0.0 mm 0.08 in2.0 mm
07:23 AM 54.7°F12.6°C 52.3°F11.3°C 92% Calm Calm -- 29.67 in1004.7 mb 0.00 in0.0 mm 0.00 in0.0 mm 0.08 in2.0 mm
07:33 AM 54.7°F12.6°C 52.3°F11.3°C 92% Calm Calm 6.0 mph9.7 kmh 29.67 in1004.7 mb 0.00 in0.0 mm 0.00 in0.0 mm 0.08 in2.0 mm
07:43 AM 54.7°F12.6°C 52.2°F11.2°C 91% Calm Calm 4.9 mph7.9 kmh 29.67 in1004.7 mb 0.00 in0.0 mm 0.00 in0.0 mm 0.08 in2.0 mm
07:53 AM 54.7°F12.6°C 52.2°F11.2°C 91% Calm Calm -- 29.67 in1004.7 mb 0.00 in0.0 mm 0.00 in0.0 mm 0.08 in2.0 mm
08:03 AM 54.7°F12.6°C 52.2°F11.2°C 91% Calm Calm -- 29.67 in1004.7 mb 0.00 in0.0 mm 0.00 in0.0 mm 0.08 in2.0 mm
08:13 AM 54.7°F12.6°C 52.2°F11.2°C 91% Calm Calm -- 29.67 in1004.7 mb 0.00 in0.0 mm 0.00 in0.0 mm 0.08 in2.0 mm
08:23 AM 54.9°F12.7°C 52.0°F11.1°C 90% Calm Calm -- 29.67 in1004.7 mb 0.00 in0.0 mm 0.00 in0.0 mm 0.08 in2.0 mm
08:33 AM 55.0°F12.8°C 52.2°F11.2°C 90% 0.9 mph S1.4 kmh S 8.9 mph14.3 kmh 29.67 in1004.7 mb 0.00 in0.0 mm 0.00 in0.0 mm 0.08 in2.0 mm
08:43 AM 55.0°F12.8°C 52.2°F11.2°C 90% Calm Calm -- 29.67 in1004.7 mb 0.00 in0.0 mm 0.00 in0.0 mm 0.08 in2.0 mm
08:53 AM 55.4°F13.0°C 52.2°F11.2°C 89% Calm Calm -- 29.67 in1004.7 mb 0.00 in0.0 mm 0.00 in0.0 mm 0.08 in2.0 mm
09:03 AM 55.8°F13.2°C 52.5°F11.4°C 89% 2.9 mph S4.7 kmh S 11.0 mph17.7 kmh 29.67 in1004.7 mb 0.00 in0.0 mm 0.00 in0.0 mm 0.08 in2.0 mm
09:13 AM 56.3°F13.5°C 52.9°F11.6°C 88% 4.9 mph S7.9 kmh S 11.0 mph17.7 kmh 29.67 in1004.7 mb 0.00 in0.0 mm 0.00 in0.0 mm 0.08 in2.0 mm
09:23 AM 57.2°F14.0°C 53.4°F11.9°C 87% 4.9 mph SW7.9 kmh SW 10.1 mph16.3 kmh 29.67 in1004.7 mb 0.00 in0.0 mm 0.00 in0.0 mm 0.08 in2.0 mm
09:33 AM 57.6°F14.2°C 53.4°F11.9°C 86% 4.9 mph SSW7.9 kmh SSW 10.1 mph16.3 kmh 29.67 in1004.7 mb 0.00 in0.0 mm 0.00 in0.0 mm 0.08 in2.0 mm
09:43 AM 57.9°F14.4°C 53.4°F11.9°C 85% 6.0 mph WSW9.7 kmh WSW 14.1 mph22.7 kmh 29.67 in1004.7 mb 0.00 in0.0 mm 0.00 in0.0 mm 0.08 in2.0 mm
09:53 AM 58.3°F14.6°C 52.9°F11.6°C 82% 4.9 mph WSW7.9 kmh WSW 13.0 mph20.9 kmh 29.67 in1004.7 mb 0.00 in0.0 mm 0.00 in0.0 mm 0.08 in2.0 mm
10:03 AM 58.3°F14.6°C 52.9°F11.6°C 82% 6.0 mph S9.7 kmh S 14.1 mph22.7 kmh 29.68 in1005.1 mb 0.00 in0.0 mm 0.00 in0.0 mm 0.08 in2.0 mm
10:13 AM 58.5°F14.7°C 53.2°F11.8°C 83% 6.0 mph WSW9.7 kmh WSW 12.1 mph19.5 kmh 29.67 in1004.7 mb 0.00 in0.0 mm 0.00 in0.0 mm 0.08 in2.0 mm
10:23 AM 58.5°F14.7°C 53.1°F11.7°C 82% 6.9 mph SW11.1 kmh SW 14.1 mph22.7 kmh 29.67 in1004.7 mb 0.00 in0.0 mm 0.00 in0.0 mm 0.08 in2.0 mm
10:33 AM 58.3°F14.6°C 52.5°F11.4°C 81% 6.0 mph SW9.7 kmh SW 13.0 mph20.9 kmh 29.68 in1005.1 mb 0.00 in0.0 mm 0.00 in0.0 mm 0.08 in2.0 mm
10:43 AM 58.3°F14.6°C 52.5°F11.4°C 81% 6.9 mph SW11.1 kmh SW 14.1 mph22.7 kmh 29.68 in1005.1 mb 0.00 in0.0 mm 0.00 in0.0 mm 0.08 in2.0 mm
10:53 AM 58.5°F14.7°C 52.7°F11.5°C 81% 6.9 mph S11.1 kmh S 17.0 mph27.4 kmh 29.69 in1005.4 mb 0.00 in0.0 mm 0.00 in0.0 mm 0.08 in2.0 mm
11:03 AM 58.6°F14.8°C 52.9°F11.6°C 81% 4.9 mph SW7.9 kmh SW 11.0 mph17.7 kmh 29.68 in1005.1 mb 0.00 in0.0 mm 0.00 in0.0 mm 0.08 in2.0 mm
11:13 AM 58.6°F14.8°C 52.9°F11.6°C 81% 4.9 mph SE7.9 kmh SE 13.0 mph20.9 kmh 29.68 in1005.1 mb 0.00 in0.0 mm 0.00 in0.0 mm 0.08 in2.0 mm
11:23 AM 59.2°F15.1°C 53.4°F11.9°C 81% 6.0 mph SSW9.7 kmh SSW 15.0 mph24.1 kmh 29.68 in1005.1 mb 0.00 in0.0 mm 0.00 in0.0 mm 0.08 in2.0 mm
11:33 AM 59.4°F15.2°C 52.9°F11.6°C 79% 8.9 mph SSW14.3 kmh SSW 19.0 mph30.6 kmh 29.68 in1005.1 mb 0.00 in0.0 mm 0.00 in0.0 mm 0.08 in2.0 mm
11:43 AM 59.5°F15.3°C 52.7°F11.5°C 78% 8.1 mph WSW13.0 kmh WSW 16.1 mph25.9 kmh 29.68 in1005.1 mb 0.00 in0.0 mm 0.00 in0.0 mm 0.08 in2.0 mm
11:53 AM 60.3°F15.7°C 53.8°F12.1°C 79% 6.9 mph WSW11.1 kmh WSW 15.0 mph24.1 kmh 29.68 in1005.1 mb 0.00 in0.0 mm 0.00 in0.0 mm 0.08 in2.0 mm
12:03 PM 60.6°F15.9°C 53.8°F12.1°C 78% 6.9 mph SW11.1 kmh SW 14.1 mph22.7 kmh 29.68 in1005.1 mb 0.00 in0.0 mm 0.00 in0.0 mm 0.08 in2.0 mm
12:13 PM 60.6°F15.9°C 53.1°F11.7°C 76% 8.1 mph WSW13.0 kmh WSW 19.9 mph32.0 kmh 29.67 in1004.7 mb 0.00 in0.0 mm 0.00 in0.0 mm 0.08 in2.0 mm
12:23 PM 60.4°F15.8°C 52.9°F11.6°C 76% 10.1 mph SW16.3 kmh SW 21.0 mph33.8 kmh 29.68 in1005.1 mb 0.00 in0.0 mm 0.00 in0.0 mm 0.08 in2.0 mm
12:33 PM 60.4°F15.8°C 52.9°F11.6°C 76% 8.1 mph SW13.0 kmh SW 16.1 mph25.9 kmh 29.67 in1004.7 mb 0.00 in0.0 mm 0.00 in0.0 mm 0.08 in2.0 mm
12:43 PM 60.6°F15.9°C 52.3°F11.3°C 74% 8.1 mph SSW13.0 kmh SSW 21.9 mph35.2 kmh 29.67 in1004.7 mb 0.00 in0.0 mm 0.00 in0.0 mm 0.08 in2.0 mm
12:54 PM 60.6°F15.9°C 52.3°F11.3°C 74% 8.1 mph SSW13.0 kmh SSW 21.9 mph35.2 kmh 29.67 in1004.7 mb 0.00 in0.0 mm 0.00 in0.0 mm 0.08 in2.0 mm
01:04 PM 61.0°F16.1°C 53.1°F11.7°C 75% 6.0 mph S9.7 kmh S 14.1 mph22.7 kmh 29.67 in1004.7 mb 0.00 in0.0 mm 0.00 in0.0 mm 0.08 in2.0 mm
01:14 PM 61.0°F16.1°C 52.7°F11.5°C 74% 4.0 mph S6.4 kmh S 11.0 mph17.7 kmh 29.66 in1004.4 mb 0.00 in0.0 mm 0.00 in0.0 mm 0.08 in2.0 mm
01:24 PM 60.4°F15.8°C 52.5°F11.4°C 75% 6.0 mph SW9.7 kmh SW 15.0 mph24.1 kmh 29.67 in1004.7 mb 0.00 in0.0 mm 0.00 in0.0 mm 0.08 in2.0 mm
01:34 PM 60.3°F15.7°C 52.7°F11.5°C 76% 6.0 mph SSW9.7 kmh SSW 13.0 mph20.9 kmh 29.66 in1004.4 mb 0.00 in0.0 mm 0.00 in0.0 mm 0.08 in2.0 mm
01:44 PM 60.1°F15.6°C 52.5°F11.4°C 76% 6.0 mph WSW9.7 kmh WSW 13.0 mph20.9 kmh 29.66 in1004.4 mb 0.00 in0.0 mm 0.00 in0.0 mm 0.08 in2.0 mm
01:54 PM 59.7°F15.4°C 52.5°F11.4°C 77% 6.9 mph WSW11.1 kmh WSW 14.1 mph22.7 kmh 29.66 in1004.4 mb 0.00 in0.0 mm 0.00 in0.0 mm 0.08 in2.0 mm
02:04 PM 59.4°F15.2°C 53.2°F11.8°C 80% 4.9 mph SSW7.9 kmh SSW 12.1 mph19.5 kmh 29.67 in1004.7 mb 0.00 in0.0 mm 0.00 in0.0 mm 0.08 in2.0 mm
02:14 PM 58.8°F14.9°C 53.6°F12.0°C 83% 4.9 mph SW7.9 kmh SW 16.1 mph25.9 kmh 29.67 in1004.7 mb 0.01 in0.3 mm 0.06 in1.5 mm 0.09 in2.3 mm
02:24 PM 58.3°F14.6°C 53.8°F12.1°C 85% 4.0 mph S6.4 kmh S 11.0 mph17.7 kmh 29.66 in1004.4 mb 0.02 in0.5 mm 0.06 in1.5 mm 0.10 in2.5 mm
02:34 PM 57.9°F14.4°C 54.1°F12.3°C 87% 2.0 mph SE3.2 kmh SE 6.0 mph9.7 kmh 29.66 in1004.4 mb 0.04 in1.0 mm 0.12 in3.0 mm 0.12 in3.0 mm
02:44 PM 57.9°F14.4°C 54.3°F12.4°C 88% 0.9 mph SSW1.4 kmh SSW 6.0 mph9.7 kmh 29.65 in1004.1 mb 0.04 in1.0 mm 0.00 in0.0 mm 0.12 in3.0 mm
02:54 PM 57.7°F14.3°C 54.5°F12.5°C 89% Calm Calm 2.9 mph4.7 kmh 29.65 in1004.1 mb 0.04 in1.0 mm 0.00 in0.0 mm 0.12 in3.0 mm
03:04 PM 57.9°F14.4°C 54.7°F12.6°C 89% Calm Calm 4.0 mph6.4 kmh 29.64 in1003.7 mb 0.05 in1.3 mm 0.01 in0.3 mm 0.13 in3.3 mm
03:14 PM 57.7°F14.3°C 54.5°F12.5°C 89% Calm Calm -- 29.64 in1003.7 mb 0.05 in1.3 mm 0.00 in0.0 mm 0.14 in3.6 mm
03:24 PM 57.6°F14.2°C 54.7°F12.6°C 90% Calm Calm -- 29.64 in1003.7 mb 0.06 in1.5 mm 0.06 in1.5 mm 0.16 in4.1 mm
03:34 PM 57.6°F14.2°C 54.7°F12.6°C 90% Calm Calm -- 29.63 in1003.4 mb 0.04 in1.0 mm 0.00 in0.0 mm 0.16 in4.1 mm
03:45 PM 57.6°F14.2°C 54.7°F12.6°C 90% Calm Calm -- 29.62 in1003.0 mb 0.04 in1.0 mm 0.00 in0.0 mm 0.16 in4.1 mm
03:55 PM 57.6°F14.2°C 54.7°F12.6°C 90% Calm Calm -- 29.62 in1003.0 mb 0.05 in1.3 mm 0.06 in1.5 mm 0.17 in4.3 mm
04:05 PM 57.6°F14.2°C 55.0°F12.8°C 91% Calm Calm -- 29.62 in1003.0 mb 0.06 in1.5 mm 0.01 in0.3 mm 0.19 in4.8 mm
04:15 PM 57.6°F14.2°C 55.0°F12.8°C 91% Calm Calm -- 29.61 in1002.7 mb 0.06 in1.5 mm 0.00 in0.0 mm 0.19 in4.8 mm
04:25 PM 57.4°F14.1°C 54.9°F12.7°C 91% Calm Calm -- 29.61 in1002.7 mb 0.03 in0.8 mm 0.00 in0.0 mm 0.19 in4.8 mm
04:35 PM 57.0°F13.9°C 54.5°F12.5°C 91% Calm Calm -- 29.62 in1003.0 mb 0.03 in0.8 mm 0.00 in0.0 mm 0.19 in4.8 mm
04:45 PM 56.8°F13.8°C 54.3°F12.4°C 91% Calm Calm -- 29.62 in1003.0 mb 0.04 in1.0 mm 0.06 in1.5 mm 0.20 in5.1 mm
04:55 PM 56.7°F13.7°C 54.1°F12.3°C 91% Calm Calm -- 29.61 in1002.7 mb 0.06 in1.5 mm 0.12 in3.0 mm 0.22 in5.6 mm
05:05 PM 56.3°F13.5°C 53.8°F12.1°C 91% Calm Calm -- 29.60 in1002.4 mb 0.04 in1.0 mm 0.00 in0.0 mm 0.23 in5.8 mm
05:15 PM 56.1°F13.4°C 53.6°F12.0°C 91% Calm Calm -- 29.60 in1002.4 mb 0.05 in1.3 mm 0.06 in1.5 mm 0.24 in6.1 mm
05:25 PM 56.1°F13.4°C 53.8°F12.1°C 92% Calm Calm -- 29.60 in1002.4 mb 0.05 in1.3 mm 0.00 in0.0 mm 0.24 in6.1 mm
05:35 PM 56.1°F13.4°C 53.8°F12.1°C 92% Calm Calm -- 29.59 in1002.0 mb 0.05 in1.3 mm 0.00 in0.0 mm 0.24 in6.1 mm
05:45 PM 55.9°F13.3°C 53.6°F12.0°C 92% Calm Calm -- 29.59 in1002.0 mb 0.05 in1.3 mm 0.00 in0.0 mm 0.24 in6.1 mm
05:55 PM 55.8°F13.2°C 53.4°F11.9°C 92% Calm Calm -- 29.57 in1001.4 mb 0.02 in0.5 mm 0.00 in0.0 mm 0.24 in6.1 mm
06:06 PM 55.6°F13.1°C 53.2°F11.8°C 92% Calm Calm -- 29.57 in1001.4 mb 0.02 in0.5 mm 0.00 in0.0 mm 0.25 in6.4 mm
06:16 PM 55.2°F12.9°C 52.9°F11.6°C 92% Calm Calm -- 29.57 in1001.4 mb 0.02 in0.5 mm 0.00 in0.0 mm 0.25 in6.4 mm
06:26 PM 55.0°F12.8°C 52.7°F11.5°C 92% Calm Calm -- 29.57 in1001.4 mb 0.02 in0.5 mm 0.00 in0.0 mm 0.25 in6.4 mm
06:36 PM 55.0°F12.8°C 52.7°F11.5°C 92% Calm Calm -- 29.56 in1001.0 mb 0.02 in0.5 mm 0.00 in0.0 mm 0.25 in6.4 mm
06:46 PM 54.9°F12.7°C 52.5°F11.4°C 92% Calm Calm -- 29.56 in1001.0 mb 0.02 in0.5 mm 0.00 in0.0 mm 0.26 in6.6 mm
06:56 PM 54.7°F12.6°C 52.3°F11.3°C 92% Calm Calm -- 29.56 in1001.0 mb 0.03 in0.8 mm 0.06 in1.5 mm 0.28 in7.1 mm
07:06 PM 54.7°F12.6°C 52.3°F11.3°C 92% Calm Calm -- 29.56 in1001.0 mb 0.03 in0.8 mm 0.00 in0.0 mm 0.28 in7.1 mm
07:16 PM 54.7°F12.6°C 52.3°F11.3°C 92% Calm Calm -- 29.54 in1000.3 mb 0.03 in0.8 mm 0.00 in0.0 mm 0.28 in7.1 mm
07:27 PM 54.7°F12.6°C 52.3°F11.3°C 92% Calm Calm -- 29.54 in1000.3 mb 0.04 in1.0 mm 0.05 in1.3 mm 0.29 in7.4 mm
07:37 PM 54.7°F12.6°C 52.7°F11.5°C 93% Calm Calm -- 29.53 in1000.0 mb 0.04 in1.0 mm 0.00 in0.0 mm 0.29 in7.4 mm
07:47 PM 54.7°F12.6°C 52.7°F11.5°C 93% Calm Calm -- 29.53 in1000.0 mb 0.05 in1.3 mm 0.06 in1.5 mm 0.31 in7.9 mm
07:57 PM 54.9°F12.7°C 52.9°F11.6°C 93% Calm Calm -- 29.52 in999.7 mb 0.04 in1.0 mm 0.00 in0.0 mm 0.32 in8.1 mm
08:07 PM 55.0°F12.8°C 53.1°F11.7°C 93% Calm Calm -- 29.52 in999.7 mb 0.06 in1.5 mm 0.02 in0.5 mm 0.34 in8.6 mm
08:17 PM 55.2°F12.9°C 53.6°F12.0°C 94% Calm Calm -- 29.52 in999.7 mb 0.07 in1.8 mm 0.06 in1.5 mm 0.35 in8.9 mm
08:27 PM 55.6°F13.1°C 54.0°F12.2°C 94% Calm Calm -- 29.52 in999.7 mb 0.08 in2.0 mm 0.06 in1.5 mm 0.37 in9.4 mm
08:37 PM 55.6°F13.1°C 54.0°F12.2°C 94% Calm Calm -- 29.51 in999.3 mb 0.09 in2.3 mm 0.06 in1.5 mm 0.38 in9.7 mm
08:47 PM 55.8°F13.2°C 54.1°F12.3°C 94% Calm Calm -- 29.51 in999.3 mb 0.08 in2.0 mm 0.00 in0.0 mm 0.39 in9.9 mm
08:57 PM 56.5°F13.6°C 54.9°F12.7°C 94% Calm Calm -- 29.51 in999.3 mb 0.07 in1.8 mm 0.00 in0.0 mm 0.39 in9.9 mm
09:07 PM 57.0°F13.9°C 55.2°F12.9°C 94% 0.9 mph SW1.4 kmh SW 8.9 mph14.3 kmh 29.50 in999.0 mb 0.06 in1.5 mm 0.00 in0.0 mm 0.39 in9.9 mm
09:17 PM 57.4°F14.1°C 55.6°F13.1°C 94% Calm Calm 6.0 mph9.7 kmh 29.49 in998.6 mb 0.04 in1.0 mm 0.00 in0.0 mm 0.39 in9.9 mm
09:28 PM 57.6°F14.2°C 55.8°F13.2°C 94% 4.0 mph SSW6.4 kmh SSW 14.1 mph22.7 kmh 29.49 in998.6 mb 0.03 in0.8 mm 0.00 in0.0 mm 0.40 in10.2 mm
09:38 PM 57.7°F14.3°C 55.9°F13.3°C 94% 2.9 mph SW4.7 kmh SW 10.1 mph16.3 kmh 29.49 in998.6 mb 0.02 in0.5 mm 0.00 in0.0 mm 0.40 in10.2 mm
09:48 PM 57.9°F14.4°C 56.1°F13.4°C 94% 4.9 mph SSW7.9 kmh SSW 17.9 mph28.8 kmh 29.49 in998.6 mb 0.02 in0.5 mm 0.00 in0.0 mm 0.40 in10.2 mm
09:58 PM 58.3°F14.6°C 56.3°F13.5°C 93% 0.9 mph S1.4 kmh S 12.1 mph19.5 kmh 29.48 in998.3 mb 0.01 in0.3 mm 0.00 in0.0 mm 0.40 in10.2 mm
10:08 PM 58.3°F14.6°C 56.3°F13.5°C 93% 2.0 mph SE3.2 kmh SE 11.0 mph17.7 kmh 29.47 in998.0 mb 0.02 in0.5 mm 0.01 in0.3 mm 0.41 in10.4 mm
10:18 PM 58.3°F14.6°C 55.9°F13.3°C 92% 2.0 mph SW3.2 kmh SW 11.0 mph17.7 kmh 29.47 in998.0 mb 0.02 in0.5 mm 0.00 in0.0 mm 0.41 in10.4 mm
10:28 PM 58.3°F14.6°C 55.9°F13.3°C 92% 2.0 mph SW3.2 kmh SW 12.1 mph19.5 kmh 29.47 in998.0 mb 0.01 in0.3 mm 0.00 in0.0 mm 0.41 in10.4 mm
10:38 PM 58.3°F14.6°C 55.9°F13.3°C 92% 0.9 mph SSE1.4 kmh SSE 12.1 mph19.5 kmh 29.46 in997.6 mb 0.01 in0.3 mm 0.00 in0.0 mm 0.41 in10.4 mm
10:48 PM 58.5°F14.7°C 56.1°F13.4°C 92% 4.0 mph S6.4 kmh S 11.0 mph17.7 kmh 29.46 in997.6 mb 0.01 in0.3 mm 0.00 in0.0 mm 0.41 in10.4 mm
10:58 PM 58.6°F14.8°C 55.9°F13.3°C 91% 4.0 mph SE6.4 kmh SE 12.1 mph19.5 kmh 29.44 in997.0 mb 0.01 in0.3 mm 0.00 in0.0 mm 0.41 in10.4 mm
11:08 PM 58.5°F14.7°C 55.8°F13.2°C 91% 2.0 mph SSW3.2 kmh SSW 14.1 mph22.7 kmh 29.44 in997.0 mb 0.01 in0.3 mm 0.00 in0.0 mm 0.42 in10.7 mm
11:18 PM 58.5°F14.7°C 55.8°F13.2°C 91% Calm Calm 4.0 mph6.4 kmh 29.44 in997.0 mb 0.01 in0.3 mm 0.00 in0.0 mm 0.43 in10.9 mm
11:28 PM 58.3°F14.6°C 55.9°F13.3°C 92% 0.9 mph S1.4 kmh S 12.1 mph19.5 kmh 29.44 in997.0 mb 0.02 in0.5 mm 0.06 in1.5 mm 0.43 in10.9 mm
11:38 PM 58.1°F14.5°C 55.8°F13.2°C 92% 0.9 mph SE1.4 kmh SE 8.9 mph14.3 kmh 29.43 in996.6 mb 0.03 in0.8 mm 0.06 in1.5 mm 0.44 in11.2 mm
11:48 PM 57.9°F14.4°C 55.6°F13.1°C 92% 0.9 mph SE1.4 kmh SE 11.0 mph17.7 kmh 29.42 in996.3 mb 0.05 in1.3 mm 0.12 in3.0 mm 0.46 in11.7 mm
11:58 PM 57.9°F14.4°C 55.6°F13.1°C 92% 2.9 mph SE4.7 kmh SE 12.1 mph19.5 kmh 29.41 in995.9 mb 0.06 in1.5 mm 0.06 in1.5 mm 0.46 in11.7 mm